createdAt,value
2018-03-06T00:00:33.864Z,10.30
2018-03-06T00:03:02.231Z,10.20
2018-03-06T00:05:29.598Z,10.20
2018-03-06T00:07:56.967Z,10.10
2018-03-06T00:10:25.260Z,10.10
2018-03-06T00:15:21.675Z,10.00
2018-03-06T00:17:49.040Z,9.90
2018-03-06T00:20:16.470Z,9.90
2018-03-06T00:22:43.952Z,10.00
2018-03-06T00:27:40.406Z,10.20
2018-03-06T00:30:08.603Z,10.10
2018-03-06T00:35:05.003Z,9.90
2018-03-06T00:37:33.128Z,9.90
2018-03-06T00:40:00.783Z,10.10
2018-03-06T00:42:28.163Z,10.10
2018-03-06T00:44:55.519Z,10.20
2018-03-06T00:47:23.177Z,10.20
2018-03-06T00:49:51.292Z,10.10
2018-03-06T00:52:18.678Z,10.20
2018-03-06T00:54:46.920Z,10.10
2018-03-06T00:57:14.520Z,10.10
2018-03-06T01:02:10.920Z,9.90
2018-03-06T01:04:38.671Z,10.00
2018-03-06T01:07:06.893Z,9.90
2018-03-06T01:12:03.275Z,9.80
2018-03-06T01:14:30.912Z,9.80
2018-03-06T01:19:27.310Z,9.70
2018-03-06T01:24:23.821Z,9.80
2018-03-06T01:29:20.236Z,9.80
2018-03-06T01:31:48.439Z,9.80
2018-03-06T01:34:16.576Z,9.70
2018-03-06T01:36:43.940Z,9.50
2018-03-06T01:41:39.634Z,9.40
2018-03-06T01:46:35.272Z,9.60
2018-03-06T01:49:02.639Z,9.50
2018-03-06T01:54:05.063Z,9.30
2018-03-06T01:56:33.400Z,9.00
2018-03-06T01:59:00.752Z,9.00
2018-03-06T02:03:57.200Z,9.10
2018-03-06T02:08:52.959Z,9.00
2018-03-06T02:11:20.504Z,9.10
2018-03-06T02:13:48.529Z,9.00
2018-03-06T02:16:15.860Z,8.90
2018-03-06T02:18:43.224Z,8.70
2018-03-06T02:21:11.335Z,8.70
2018-03-06T02:26:07.751Z,8.90
2018-03-06T02:28:35.864Z,9.00
2018-03-06T02:33:31.549Z,9.00
2018-03-06T02:38:27.879Z,9.20
2018-03-06T02:40:56.220Z,9.10
2018-03-06T02:43:23.547Z,9.00
2018-03-06T02:45:51.843Z,8.80
2018-03-06T02:48:20.999Z,8.80
2018-03-06T02:50:49.296Z,8.90
2018-03-06T02:53:16.648Z,8.90
2018-03-06T02:55:44.748Z,8.80
2018-03-06T02:58:12.116Z,8.80
2018-03-06T03:00:40.236Z,8.90
2018-03-06T03:05:36.713Z,9.00
2018-03-06T03:08:04.116Z,9.10
2018-03-06T03:12:59.723Z,8.90
2018-03-06T03:22:51.974Z,8.80
2018-03-06T03:25:19.397Z,8.90
2018-03-06T03:27:47.509Z,8.90
2018-03-06T03:30:15.579Z,8.90
2018-03-06T03:32:43.659Z,8.80
2018-03-06T03:35:11.680Z,8.90
2018-03-06T03:37:39.976Z,9.00
2018-03-06T03:40:08.244Z,8.90
2018-03-06T03:42:36.944Z,9.00
2018-03-06T03:45:04.428Z,9.00
2018-03-06T03:50:00.141Z,8.70
2018-03-06T03:52:28.337Z,8.60
2018-03-06T03:57:24.099Z,8.80
2018-03-06T04:02:19.875Z,9.20
2018-03-06T04:04:47.273Z,9.10
2018-03-06T04:07:14.713Z,9.20
2018-03-06T04:12:11.108Z,9.10
2018-03-06T04:17:09.341Z,8.90
2018-03-06T04:19:36.711Z,8.90
2018-03-06T04:22:04.127Z,9.00
2018-03-06T04:24:32.320Z,8.80
2018-03-06T04:26:59.701Z,8.80
2018-03-06T04:29:27.839Z,8.70
2018-03-06T04:31:55.943Z,8.60
2018-03-06T04:39:20.692Z,8.70
2018-03-06T04:41:48.086Z,8.70
2018-03-06T04:44:15.434Z,8.70
2018-03-06T04:46:43.557Z,8.80
2018-03-06T04:51:39.304Z,8.70
2018-03-06T04:56:35.748Z,8.60
2018-03-06T05:01:32.211Z,8.70
2018-03-06T05:03:59.651Z,8.70
2018-03-06T05:06:27.764Z,8.60
2018-03-06T05:08:56.075Z,8.50
2018-03-06T05:11:23.433Z,8.50
2018-03-06T05:21:16.508Z,8.50
2018-03-06T05:23:44.633Z,8.50
2018-03-06T05:28:40.263Z,8.50
2018-03-06T05:33:36.073Z,8.50
2018-03-06T05:36:03.480Z,8.50
2018-03-06T05:38:31.600Z,8.60
2018-03-06T05:40:58.983Z,8.50
2018-03-06T05:43:27.101Z,8.50
2018-03-06T05:45:54.500Z,8.30
2018-03-06T05:48:22.653Z,8.30
2018-03-06T05:50:50.104Z,8.30
2018-03-06T05:55:46.900Z,8.40
2018-03-06T06:00:42.819Z,8.50
2018-03-06T06:08:08.367Z,8.60
2018-03-06T06:22:58.036Z,8.50
2018-03-06T06:30:22.673Z,8.50
2018-03-06T06:32:50.447Z,8.60
2018-03-06T06:35:18.551Z,8.60
2018-03-06T06:37:46.049Z,8.70
2018-03-06T06:42:42.529Z,8.80
2018-03-06T06:45:10.748Z,8.90
2018-03-06T06:47:38.121Z,9.00
2018-03-06T06:50:05.429Z,9.00
2018-03-06T06:52:32.790Z,9.00
2018-03-06T06:55:00.913Z,8.90
2018-03-06T06:59:57.345Z,8.90
2018-03-06T07:02:25.486Z,9.00
2018-03-06T07:04:52.839Z,9.00
2018-03-06T07:09:49.168Z,9.10
2018-03-06T07:12:16.544Z,9.20
2018-03-06T07:14:44.093Z,9.40
2018-03-06T07:17:11.424Z,9.50
2018-03-06T07:19:38.772Z,9.70
2018-03-06T07:24:35.204Z,9.70
2018-03-06T07:27:02.556Z,9.50
2018-03-06T07:29:30.646Z,9.50
2018-03-06T07:34:27.045Z,9.90
2018-03-06T07:36:55.110Z,10.10
2018-03-06T07:41:50.844Z,10.10
2018-03-06T07:46:47.152Z,10.30
2018-03-06T07:49:15.261Z,10.20
2018-03-06T07:51:42.606Z,9.90
2018-03-06T07:54:10.762Z,9.80
2018-03-06T07:56:38.105Z,9.90
2018-03-06T07:59:05.480Z,10.00
2018-03-06T08:01:33.076Z,9.90
2018-03-06T08:06:29.491Z,9.80
2018-03-06T08:11:25.983Z,10.10
2018-03-06T08:16:21.599Z,10.40
2018-03-06T08:18:48.929Z,10.20
2018-03-06T08:21:17.027Z,9.80
2018-03-06T08:23:44.395Z,9.70
2018-03-06T08:31:08.453Z,10.00
2018-03-06T08:33:36.540Z,10.10
2018-03-06T08:38:33.028Z,10.60
2018-03-06T08:41:00.465Z,10.80
2018-03-06T08:45:56.132Z,11.00
2018-03-06T08:48:24.220Z,11.20
2018-03-06T08:53:19.881Z,11.70
2018-03-06T08:55:47.269Z,12.00
2018-03-06T08:58:14.614Z,12.30
2018-03-06T09:03:10.465Z,12.80
2018-03-06T09:10:35.128Z,13.90
2018-03-06T09:13:03.232Z,14.20
2018-03-06T09:15:30.590Z,14.40
2018-03-06T09:17:58.208Z,14.50
2018-03-06T09:20:25.603Z,14.60
2018-03-06T09:25:22.097Z,14.40
2018-03-06T09:27:49.428Z,14.30
2018-03-06T09:32:45.104Z,14.20
2018-03-06T09:40:09.155Z,14.30
2018-03-06T09:42:36.502Z,14.40
2018-03-06T09:45:03.880Z,14.60
2018-03-06T09:47:31.996Z,14.80
2018-03-06T09:50:00.097Z,14.90
2018-03-06T09:52:27.507Z,14.90
2018-03-06T09:54:54.839Z,14.80
2018-03-06T09:57:22.956Z,14.70
2018-03-06T09:59:50.311Z,14.60
2018-03-06T10:02:18.518Z,14.70
2018-03-06T10:04:45.860Z,14.80
2018-03-06T10:07:13.244Z,14.90
2018-03-06T10:12:09.667Z,14.90
2018-03-06T10:14:37.028Z,15.00
2018-03-06T10:19:32.655Z,15.10
2018-03-06T10:24:28.446Z,15.10
2018-03-06T10:29:24.280Z,15.20
2018-03-06T10:31:51.625Z,15.30
2018-03-06T10:34:19.732Z,15.30
2018-03-06T10:36:47.091Z,15.20
2018-03-06T10:39:14.426Z,15.10
2018-03-06T10:41:42.532Z,15.20
2018-03-06T10:44:09.939Z,15.20
2018-03-06T10:46:38.104Z,15.20
2018-03-06T10:49:06.517Z,15.20
2018-03-06T10:51:33.974Z,15.20
2018-03-06T10:54:02.049Z,15.20
2018-03-06T10:56:29.395Z,15.30
2018-03-06T11:01:25.151Z,15.60
2018-03-06T11:03:53.247Z,15.80
2018-03-06T11:06:21.328Z,15.90
2018-03-06T11:08:49.436Z,16.00
2018-03-06T11:11:16.801Z,16.10
2018-03-06T11:13:44.919Z,16.30
2018-03-06T11:16:12.285Z,16.50
2018-03-06T11:18:40.382Z,16.60
2018-03-06T11:23:36.009Z,17.10
2018-03-06T11:28:31.667Z,17.50
2018-03-06T11:30:59.768Z,17.60
2018-03-06T11:33:27.889Z,17.70
2018-03-06T11:38:23.566Z,17.90
2018-03-06T11:40:51.001Z,18.00
2018-03-06T11:43:18.369Z,17.90
2018-03-06T11:48:14.017Z,17.60
2018-03-06T11:55:38.042Z,17.50
2018-03-06T12:00:34.419Z,17.50
2018-03-06T12:03:01.815Z,17.20
2018-03-06T12:07:58.213Z,16.70
2018-03-06T12:12:54.744Z,16.80
2018-03-06T12:15:22.209Z,16.80
2018-03-06T12:17:50.359Z,16.70
2018-03-06T12:20:18.474Z,16.60
2018-03-06T12:22:45.864Z,16.60
2018-03-06T12:27:41.559Z,16.50
2018-03-06T12:30:09.680Z,16.50
2018-03-06T12:35:05.312Z,16.60
2018-03-06T12:40:00.960Z,16.60
2018-03-06T12:42:29.115Z,16.50
2018-03-06T12:44:56.484Z,16.40
2018-03-06T12:47:24.594Z,16.50
2018-03-06T12:52:20.349Z,16.50
2018-03-06T12:57:16.753Z,16.40
2018-03-06T12:59:44.830Z,16.40
2018-03-06T13:02:12.209Z,16.30
2018-03-06T13:04:39.664Z,16.20
2018-03-06T13:07:07.012Z,16.30
2018-03-06T13:12:03.428Z,16.50
2018-03-06T13:14:30.779Z,16.50
2018-03-06T13:16:58.211Z,16.60
2018-03-06T13:19:25.580Z,16.70
2018-03-06T13:21:53.029Z,16.80
2018-03-06T13:24:21.372Z,16.80
2018-03-06T13:29:17.783Z,16.70
2018-03-06T13:31:45.128Z,16.70
2018-03-06T13:34:12.529Z,16.60
2018-03-06T13:39:08.292Z,16.30
2018-03-06T13:41:35.618Z,16.30
2018-03-06T13:44:03.897Z,16.30
2018-03-06T13:48:59.504Z,16.70
2018-03-06T13:51:27.645Z,16.90
2018-03-06T13:53:55.018Z,17.00
2018-03-06T13:56:22.536Z,17.10
2018-03-06T14:01:19.268Z,17.20
2018-03-06T14:06:15.289Z,17.20
2018-03-06T14:08:42.700Z,17.10
2018-03-06T14:11:10.788Z,17.00
2018-03-06T14:13:38.905Z,16.90
2018-03-06T14:16:06.338Z,16.90
2018-03-06T14:18:33.718Z,16.90
2018-03-06T14:23:29.347Z,16.80
2018-03-06T14:25:56.765Z,16.60
2018-03-06T14:28:24.141Z,16.50
2018-03-06T14:30:51.489Z,16.30
2018-03-06T14:33:18.893Z,16.20
2018-03-06T14:35:47.016Z,16.10
2018-03-06T14:38:14.459Z,16.00
2018-03-06T14:40:42.571Z,15.90
2018-03-06T14:43:10.684Z,15.80
2018-03-06T14:45:38.813Z,15.80
2018-03-06T14:48:06.176Z,15.80
2018-03-06T14:55:30.148Z,15.60
2018-03-06T14:57:58.307Z,15.60
2018-03-06T15:00:25.843Z,15.40
2018-03-06T15:05:21.575Z,15.20
2018-03-06T15:07:49.080Z,15.20
2018-03-06T15:12:44.728Z,15.10
2018-03-06T15:15:12.857Z,15.00
2018-03-06T15:20:08.559Z,14.90
2018-03-06T15:22:37.582Z,14.90
2018-03-06T15:25:04.973Z,14.90
2018-03-06T15:27:32.314Z,14.80
2018-03-06T15:29:59.859Z,14.80
2018-03-06T15:32:27.248Z,14.80
2018-03-06T15:34:54.652Z,14.80
2018-03-06T15:37:22.165Z,14.80
2018-03-06T15:39:49.621Z,14.80
2018-03-06T15:42:32.736Z,14.70
2018-03-06T15:45:04.760Z,14.70
2018-03-06T15:47:34.776Z,14.60
2018-03-06T15:50:02.310Z,14.60
2018-03-06T15:52:39.996Z,14.60
2018-03-06T15:55:12.992Z,14.60
2018-03-06T15:57:51.685Z,14.60
2018-03-06T16:00:21.364Z,14.60
2018-03-06T16:02:56.260Z,14.60
2018-03-06T16:05:28.947Z,14.40
2018-03-06T16:07:58.931Z,14.30
2018-03-06T16:10:26.393Z,14.40
2018-03-06T16:12:56.339Z,14.30
2018-03-06T16:15:28.305Z,14.30
2018-03-06T16:17:56.037Z,14.30
2018-03-06T16:20:25.279Z,14.30
2018-03-06T16:22:55.598Z,14.30
2018-03-06T16:25:23.012Z,14.20
2018-03-06T16:27:55.110Z,14.20
2018-03-06T16:30:23.493Z,14.10
2018-03-06T16:32:51.675Z,14.10
2018-03-06T16:35:25.982Z,14.00
2018-03-06T16:37:58.194Z,14.00
2018-03-06T16:40:25.690Z,14.00
2018-03-06T16:42:55.739Z,14.00
2018-03-06T16:45:25.065Z,13.90
2018-03-06T16:47:55.067Z,13.90
2018-03-06T16:50:25.149Z,13.90
2018-03-06T16:52:54.653Z,13.80
2018-03-06T16:55:22.873Z,13.80
2018-03-06T16:57:55.252Z,13.80
2018-03-06T17:00:24.623Z,13.70
2018-03-06T17:02:52.873Z,13.60
2018-03-06T17:05:20.365Z,13.50
2018-03-06T17:07:48.913Z,13.30
2018-03-06T17:10:18.289Z,13.20
2018-03-06T17:12:45.887Z,13.10
2018-03-06T17:15:13.297Z,13.00
2018-03-06T17:17:40.909Z,12.90
2018-03-06T17:20:09.227Z,12.90
2018-03-06T17:22:40.544Z,12.90
2018-03-06T17:25:08.906Z,12.90
2018-03-06T17:27:38.539Z,12.90
2018-03-06T17:30:10.825Z,12.90
2018-03-06T17:32:38.285Z,12.80
2018-03-06T17:35:05.782Z,12.80
2018-03-06T17:37:34.285Z,12.80
2018-03-06T17:40:06.069Z,12.70
2018-03-06T17:42:33.741Z,12.70
2018-03-06T17:45:04.178Z,12.70
2018-03-06T17:47:31.649Z,12.70
2018-03-06T17:52:34.007Z,12.40
2018-03-06T17:55:01.417Z,12.50
2018-03-06T17:57:33.293Z,12.60
2018-03-06T18:00:04.367Z,12.50
2018-03-06T18:02:35.588Z,12.50
2018-03-06T18:05:04.032Z,12.40
2018-03-06T18:07:33.354Z,12.30
2018-03-06T18:10:07.274Z,12.20
2018-03-06T18:12:37.659Z,12.20
2018-03-06T18:15:12.942Z,12.20
2018-03-06T18:17:45.280Z,12.20
2018-03-06T18:20:15.592Z,12.30
2018-03-06T18:22:45.179Z,12.40
2018-03-06T18:25:15.452Z,12.40
2018-03-06T18:27:43.308Z,12.40
2018-03-06T18:30:11.771Z,12.40
2018-03-06T18:32:44.464Z,12.40
2018-03-06T18:35:14.969Z,12.30
2018-03-06T18:37:48.060Z,12.20
2018-03-06T18:40:18.010Z,12.20
2018-03-06T18:42:54.005Z,12.20
2018-03-06T18:45:23.013Z,12.10
2018-03-06T18:47:53.710Z,12.00
2018-03-06T18:53:33.543Z,12.00
2018-03-06T18:56:02.008Z,11.70
2018-03-06T18:58:30.337Z,11.70
2018-03-06T19:01:09.840Z,11.70
2018-03-06T19:03:56.286Z,11.70
2018-03-06T19:06:37.254Z,11.70
2018-03-06T19:09:12.854Z,11.80
2018-03-06T19:11:43.080Z,11.80
2018-03-06T19:14:11.544Z,11.90
2018-03-06T19:16:40.821Z,11.90
2018-03-06T19:19:08.669Z,11.90
2018-03-06T19:21:36.857Z,11.90
2018-03-06T19:24:09.329Z,11.90
2018-03-06T19:26:38.902Z,12.00
2018-03-06T19:29:06.372Z,11.90
2018-03-06T19:31:35.650Z,11.90
2018-03-06T19:34:04.184Z,12.00
2018-03-06T19:36:34.250Z,11.90
2018-03-06T19:39:02.657Z,11.90
2018-03-06T19:41:30.827Z,11.90
2018-03-06T19:44:00.258Z,11.90
2018-03-06T19:46:27.688Z,11.80
2018-03-06T19:49:01.907Z,11.90
2018-03-06T19:51:29.343Z,11.80
2018-03-06T19:53:58.712Z,11.70
2018-03-06T19:56:28.097Z,11.50
2018-03-06T19:58:57.961Z,11.50
2018-03-06T20:01:28.953Z,11.40
2018-03-06T20:03:58.242Z,11.50
2018-03-06T20:06:34.384Z,11.60
2018-03-06T20:09:03.643Z,11.70
2018-03-06T20:11:32.885Z,11.70
2018-03-06T20:14:03.864Z,11.80
2018-03-06T20:16:36.991Z,11.80
2018-03-06T20:19:11.224Z,11.70
2018-03-06T20:21:40.423Z,11.60
2018-03-06T20:24:13.908Z,11.50
2018-03-06T20:26:46.077Z,11.50
2018-03-06T20:29:17.070Z,11.70
2018-03-06T20:31:51.149Z,11.90
2018-03-06T20:34:22.960Z,12.00
2018-03-06T20:36:52.173Z,12.10
2018-03-06T20:42:04.738Z,12.10
2018-03-06T20:44:38.104Z,12.20
2018-03-06T20:47:13.459Z,12.30
2018-03-06T20:49:43.877Z,12.20
2018-03-06T20:52:15.071Z,12.20
2018-03-06T20:54:51.298Z,12.20
2018-03-06T20:57:20.751Z,12.20
2018-03-06T20:59:50.979Z,12.20
2018-03-06T21:02:21.919Z,12.20
2018-03-06T21:04:50.052Z,12.20
2018-03-06T21:07:17.448Z,12.20
2018-03-06T21:09:46.858Z,12.20
2018-03-06T21:12:14.351Z,12.10
2018-03-06T21:14:41.755Z,12.00
2018-03-06T21:17:09.867Z,12.00
2018-03-06T21:19:37.442Z,12.10
2018-03-06T21:22:06.425Z,12.10
2018-03-06T21:24:33.869Z,12.10
2018-03-06T21:27:04.036Z,12.10
2018-03-06T21:29:31.565Z,12.10
2018-03-06T21:31:59.724Z,12.10
2018-03-06T21:34:28.118Z,12.00
2018-03-06T21:37:06.972Z,12.00
2018-03-06T21:42:15.188Z,11.90
2018-03-06T21:44:45.940Z,11.80
2018-03-06T21:47:15.008Z,11.80
2018-03-06T21:49:45.611Z,11.90
2018-03-06T21:52:14.060Z,11.90
2018-03-06T21:54:42.330Z,12.00
2018-03-06T21:57:09.786Z,12.00
2018-03-06T21:59:38.741Z,12.00
2018-03-06T22:02:07.839Z,11.90
2018-03-06T22:04:38.806Z,11.90
2018-03-06T22:07:06.228Z,11.90
2018-03-06T22:09:39.299Z,11.90
2018-03-06T22:12:09.508Z,11.90
2018-03-06T22:14:36.904Z,11.90
2018-03-06T22:17:05.056Z,11.90
2018-03-06T22:19:34.283Z,11.90
2018-03-06T22:22:02.692Z,11.90
2018-03-06T22:24:37.573Z,11.90
2018-03-06T22:27:05.779Z,12.00
2018-03-06T22:32:01.488Z,12.10
2018-03-06T22:34:33.357Z,12.00
2018-03-06T22:37:01.537Z,11.90
2018-03-06T22:39:31.768Z,12.10
2018-03-06T22:42:04.901Z,12.10
2018-03-06T22:44:36.919Z,12.10
2018-03-06T22:47:08.846Z,12.50
2018-03-06T22:49:39.753Z,12.60
2018-03-06T22:52:07.112Z,12.40
2018-03-06T22:54:35.251Z,12.20
2018-03-06T22:57:02.687Z,12.00
2018-03-06T22:59:30.780Z,12.00
2018-03-06T23:01:58.881Z,11.90
2018-03-06T23:04:27.021Z,11.80
2018-03-06T23:06:54.329Z,11.70
2018-03-06T23:09:21.737Z,11.70
2018-03-06T23:11:49.123Z,11.70
2018-03-06T23:16:44.800Z,11.80
2018-03-06T23:21:40.445Z,11.40
2018-03-06T23:24:07.808Z,11.30
2018-03-06T23:26:36.124Z,11.40
2018-03-06T23:29:04.394Z,11.40
2018-03-06T23:36:29.330Z,11.40
2018-03-06T23:38:56.730Z,11.30
2018-03-06T23:41:24.842Z,11.20
2018-03-06T23:43:52.490Z,11.10
2018-03-06T23:48:48.247Z,10.90
2018-03-06T23:51:15.803Z,10.80
2018-03-06T23:58:40.070Z,10.70
